sensor_id;sensor_type;location;lat;lon;timestamp;temperature;humidity
58566;DHT22;47788;46.172;-1.158;2022-10-16T00:01:35;17.60;99.90
58566;DHT22;47788;46.172;-1.158;2022-10-16T00:04:01;17.60;99.90
58566;DHT22;47788;46.172;-1.158;2022-10-16T00:06:28;17.50;99.90
58566;DHT22;47788;46.172;-1.158;2022-10-16T00:08:54;17.50;99.90
58566;DHT22;47788;46.172;-1.158;2022-10-16T00:11:28;17.50;99.90
58566;DHT22;47788;46.172;-1.158;2022-10-16T00:13:57;17.50;99.90
58566;DHT22;47788;46.172;-1.158;2022-10-16T00:16:23;17.50;99.90
58566;DHT22;47788;46.172;-1.158;2022-10-16T00:18:49;17.50;99.90
58566;DHT22;47788;46.172;-1.158;2022-10-16T00:21:18;17.50;99.90
58566;DHT22;47788;46.172;-1.158;2022-10-16T00:23:44;17.50;99.90
58566;DHT22;47788;46.172;-1.158;2022-10-16T00:26:13;17.50;99.90
58566;DHT22;47788;46.172;-1.158;2022-10-16T00:28:39;17.40;99.90
58566;DHT22;47788;46.172;-1.158;2022-10-16T00:31:07;17.40;99.90
58566;DHT22;47788;46.172;-1.158;2022-10-16T00:33:34;17.40;99.90
58566;DHT22;47788;46.172;-1.158;2022-10-16T00:36:02;17.40;99.90
58566;DHT22;47788;46.172;-1.158;2022-10-16T00:38:28;17.40;99.90
58566;DHT22;47788;46.172;-1.158;2022-10-16T00:40:53;17.40;99.90
58566;DHT22;47788;46.172;-1.158;2022-10-16T00:43:40;17.30;99.90
58566;DHT22;47788;46.172;-1.158;2022-10-16T00:48:42;17.30;99.90
58566;DHT22;47788;46.172;-1.158;2022-10-16T00:51:10;17.30;99.90
58566;DHT22;47788;46.172;-1.158;2022-10-16T00:53:36;17.30;99.90
58566;DHT22;47788;46.172;-1.158;2022-10-16T00:56:02;17.20;99.90
58566;DHT22;47788;46.172;-1.158;2022-10-16T00:58:28;17.20;99.90
58566;DHT22;47788;46.172;-1.158;2022-10-16T01:00:54;17.10;99.90
58566;DHT22;47788;46.172;-1.158;2022-10-16T01:03:30;17.20;99.90
58566;DHT22;47788;46.172;-1.158;2022-10-16T01:06:19;17.10;99.90
58566;DHT22;47788;46.172;-1.158;2022-10-16T01:11:37;17.10;99.90
58566;DHT22;47788;46.172;-1.158;2022-10-16T01:14:15;17.10;99.90
58566;DHT22;47788;46.172;-1.158;2022-10-16T01:16:52;17.20;99.90
58566;DHT22;47788;46.172;-1.158;2022-10-16T01:21:46;17.10;99.90
58566;DHT22;47788;46.172;-1.158;2022-10-16T01:24:40;17.10;99.90
58566;DHT22;47788;46.172;-1.158;2022-10-16T01:30:10;17.00;99.90
58566;DHT22;47788;46.172;-1.158;2022-10-16T01:32:56;17.00;99.90
58566;DHT22;47788;46.172;-1.158;2022-10-16T01:35:41;17.00;99.90
58566;DHT22;47788;46.172;-1.158;2022-10-16T01:38:10;17.00;99.90
58566;DHT22;47788;46.172;-1.158;2022-10-16T01:40:40;17.00;99.90
58566;DHT22;47788;46.172;-1.158;2022-10-16T01:43:10;17.00;99.90
58566;DHT22;47788;46.172;-1.158;2022-10-16T01:45:38;17.10;99.90
58566;DHT22;47788;46.172;-1.158;2022-10-16T01:48:05;17.00;99.90
58566;DHT22;47788;46.172;-1.158;2022-10-16T01:50:35;17.00;99.90
58566;DHT22;47788;46.172;-1.158;2022-10-16T01:53:03;17.00;99.90
58566;DHT22;47788;46.172;-1.158;2022-10-16T01:55:33;16.90;99.90
58566;DHT22;47788;46.172;-1.158;2022-10-16T01:58:02;16.90;99.90
58566;DHT22;47788;46.172;-1.158;2022-10-16T02:00:30;16.90;99.90
58566;DHT22;47788;46.172;-1.158;2022-10-16T02:02:57;16.90;99.90
58566;DHT22;47788;46.172;-1.158;2022-10-16T02:05:32;16.90;99.90
58566;DHT22;47788;46.172;-1.158;2022-10-16T02:07:59;16.90;99.90
58566;DHT22;47788;46.172;-1.158;2022-10-16T02:10:25;17.00;99.90
58566;DHT22;47788;46.172;-1.158;2022-10-16T02:13:21;16.90;99.90
58566;DHT22;47788;46.172;-1.158;2022-10-16T02:15:48;16.90;99.90
58566;DHT22;47788;46.172;-1.158;2022-10-16T02:18:14;16.90;99.90
58566;DHT22;47788;46.172;-1.158;2022-10-16T02:20:51;16.80;99.90
58566;DHT22;47788;46.172;-1.158;2022-10-16T02:23:24;16.90;99.90
58566;DHT22;47788;46.172;-1.158;2022-10-16T02:25:54;16.90;99.90
58566;DHT22;47788;46.172;-1.158;2022-10-16T02:28:28;16.80;99.90
58566;DHT22;47788;46.172;-1.158;2022-10-16T02:30:59;16.80;99.90
58566;DHT22;47788;46.172;-1.158;2022-10-16T02:33:27;16.90;99.90
58566;DHT22;47788;46.172;-1.158;2022-10-16T02:35:55;16.90;99.90
58566;DHT22;47788;46.172;-1.158;2022-10-16T02:38:22;16.90;99.90
58566;DHT22;47788;46.172;-1.158;2022-10-16T02:40:48;16.90;99.90
58566;DHT22;47788;46.172;-1.158;2022-10-16T02:43:14;16.90;99.90
58566;DHT22;47788;46.172;-1.158;2022-10-16T02:45:40;16.90;99.90
58566;DHT22;47788;46.172;-1.158;2022-10-16T02:48:06;16.90;99.90
58566;DHT22;47788;46.172;-1.158;2022-10-16T02:50:32;16.90;99.90
58566;DHT22;47788;46.172;-1.158;2022-10-16T02:52:57;16.90;99.90
58566;DHT22;47788;46.172;-1.158;2022-10-16T02:55:23;16.90;99.90
58566;DHT22;47788;46.172;-1.158;2022-10-16T02:57:49;16.80;99.90
58566;DHT22;47788;46.172;-1.158;2022-10-16T03:00:15;16.80;99.90
58566;DHT22;47788;46.172;-1.158;2022-10-16T03:02:41;16.80;99.90
58566;DHT22;47788;46.172;-1.158;2022-10-16T03:05:08;16.80;99.90
58566;DHT22;47788;46.172;-1.158;2022-10-16T03:07:34;16.80;99.90
58566;DHT22;47788;46.172;-1.158;2022-10-16T03:09:59;16.80;99.90
58566;DHT22;47788;46.172;-1.158;2022-10-16T03:12:26;16.80;99.90
58566;DHT22;47788;46.172;-1.158;2022-10-16T03:14:52;16.80;99.90
58566;DHT22;47788;46.172;-1.158;2022-10-16T03:17:18;16.90;99.90
58566;DHT22;47788;46.172;-1.158;2022-10-16T03:19:44;16.90;99.90
58566;DHT22;47788;46.172;-1.158;2022-10-16T03:22:10;16.90;99.90
58566;DHT22;47788;46.172;-1.158;2022-10-16T03:24:35;16.90;99.90
58566;DHT22;47788;46.172;-1.158;2022-10-16T03:27:04;16.80;99.90
58566;DHT22;47788;46.172;-1.158;2022-10-16T03:29:29;16.80;99.90
58566;DHT22;47788;46.172;-1.158;2022-10-16T03:31:56;16.80;99.90
58566;DHT22;47788;46.172;-1.158;2022-10-16T03:34:22;16.80;99.90
58566;DHT22;47788;46.172;-1.158;2022-10-16T03:36:47;16.90;99.90
58566;DHT22;47788;46.172;-1.158;2022-10-16T03:39:13;16.90;99.90
58566;DHT22;47788;46.172;-1.158;2022-10-16T03:41:39;16.90;99.90
58566;DHT22;47788;46.172;-1.158;2022-10-16T03:44:05;16.90;99.90
58566;DHT22;47788;46.172;-1.158;2022-10-16T03:46:31;16.90;99.90
58566;DHT22;47788;46.172;-1.158;2022-10-16T03:48:57;16.80;99.90
58566;DHT22;47788;46.172;-1.158;2022-10-16T03:51:22;16.80;99.90
58566;DHT22;47788;46.172;-1.158;2022-10-16T03:53:48;16.80;99.90
58566;DHT22;47788;46.172;-1.158;2022-10-16T03:56:13;16.80;99.90
58566;DHT22;47788;46.172;-1.158;2022-10-16T03:58:39;16.80;99.90
58566;DHT22;47788;46.172;-1.158;2022-10-16T04:01:05;16.80;99.90
58566;DHT22;47788;46.172;-1.158;2022-10-16T04:03:30;16.80;99.90
58566;DHT22;47788;46.172;-1.158;2022-10-16T04:05:56;16.80;99.90
58566;DHT22;47788;46.172;-1.158;2022-10-16T04:08:22;16.80;99.90
58566;DHT22;47788;46.172;-1.158;2022-10-16T04:10:48;16.80;99.90
58566;DHT22;47788;46.172;-1.158;2022-10-16T04:13:15;16.80;99.90
58566;DHT22;47788;46.172;-1.158;2022-10-16T04:15:40;16.80;99.90
58566;DHT22;47788;46.172;-1.158;2022-10-16T04:18:06;16.80;99.90
58566;DHT22;47788;46.172;-1.158;2022-10-16T04:20:32;16.80;99.90
58566;DHT22;47788;46.172;-1.158;2022-10-16T04:22:58;16.80;99.90
58566;DHT22;47788;46.172;-1.158;2022-10-16T04:25:24;16.80;99.90
58566;DHT22;47788;46.172;-1.158;2022-10-16T04:27:49;16.80;99.90
58566;DHT22;47788;46.172;-1.158;2022-10-16T04:30:15;16.80;99.90
58566;DHT22;47788;46.172;-1.158;2022-10-16T04:32:41;16.80;99.90
58566;DHT22;47788;46.172;-1.158;2022-10-16T04:35:07;16.80;99.90
58566;DHT22;47788;46.172;-1.158;2022-10-16T04:37:33;16.80;99.90
58566;DHT22;47788;46.172;-1.158;2022-10-16T04:39:58;16.80;99.90
58566;DHT22;47788;46.172;-1.158;2022-10-16T04:42:24;16.80;99.90
58566;DHT22;47788;46.172;-1.158;2022-10-16T04:44:50;16.80;99.90
58566;DHT22;47788;46.172;-1.158;2022-10-16T04:47:15;16.80;99.90
58566;DHT22;47788;46.172;-1.158;2022-10-16T04:49:41;16.80;99.90
58566;DHT22;47788;46.172;-1.158;2022-10-16T04:52:06;16.80;99.90
58566;DHT22;47788;46.172;-1.158;2022-10-16T04:54:34;16.80;99.90
58566;DHT22;47788;46.172;-1.158;2022-10-16T04:56:59;16.80;99.90
58566;DHT22;47788;46.172;-1.158;2022-10-16T04:59:25;16.80;99.90
58566;DHT22;47788;46.172;-1.158;2022-10-16T05:01:50;16.80;99.90
58566;DHT22;47788;46.172;-1.158;2022-10-16T05:04:16;16.80;99.90
58566;DHT22;47788;46.172;-1.158;2022-10-16T05:06:42;16.80;99.90
58566;DHT22;47788;46.172;-1.158;2022-10-16T05:09:08;16.80;99.90
58566;DHT22;47788;46.172;-1.158;2022-10-16T05:11:34;16.80;99.90
58566;DHT22;47788;46.172;-1.158;2022-10-16T05:14:00;16.80;99.90
58566;DHT22;47788;46.172;-1.158;2022-10-16T05:16:26;16.90;99.90
58566;DHT22;47788;46.172;-1.158;2022-10-16T05:18:52;16.80;99.90
58566;DHT22;47788;46.172;-1.158;2022-10-16T05:21:20;16.80;99.90
58566;DHT22;47788;46.172;-1.158;2022-10-16T05:23:45;16.80;99.90
58566;DHT22;47788;46.172;-1.158;2022-10-16T05:26:11;16.90;99.90
58566;DHT22;47788;46.172;-1.158;2022-10-16T05:28:37;16.80;99.90
58566;DHT22;47788;46.172;-1.158;2022-10-16T05:31:06;16.80;99.90
58566;DHT22;47788;46.172;-1.158;2022-10-16T05:33:32;16.80;99.90
58566;DHT22;47788;46.172;-1.158;2022-10-16T05:36:03;16.80;99.90
58566;DHT22;47788;46.172;-1.158;2022-10-16T05:38:29;16.80;99.90
58566;DHT22;47788;46.172;-1.158;2022-10-16T05:40:55;16.80;99.90
58566;DHT22;47788;46.172;-1.158;2022-10-16T05:43:22;16.80;99.90
58566;DHT22;47788;46.172;-1.158;2022-10-16T05:45:58;16.80;99.90
58566;DHT22;47788;46.172;-1.158;2022-10-16T05:48:24;16.80;99.90
58566;DHT22;47788;46.172;-1.158;2022-10-16T05:51:04;16.80;99.90
58566;DHT22;47788;46.172;-1.158;2022-10-16T05:53:31;16.80;99.90
58566;DHT22;47788;46.172;-1.158;2022-10-16T05:55:58;16.70;99.90
58566;DHT22;47788;46.172;-1.158;2022-10-16T05:58:24;16.70;99.90
58566;DHT22;47788;46.172;-1.158;2022-10-16T06:01:20;16.70;99.90
58566;DHT22;47788;46.172;-1.158;2022-10-16T06:03:52;16.60;99.90
58566;DHT22;47788;46.172;-1.158;2022-10-16T06:06:20;16.60;99.90
58566;DHT22;47788;46.172;-1.158;2022-10-16T06:08:47;16.60;99.90
58566;DHT22;47788;46.172;-1.158;2022-10-16T06:11:18;16.60;99.90
58566;DHT22;47788;46.172;-1.158;2022-10-16T06:13:44;16.60;99.90
58566;DHT22;47788;46.172;-1.158;2022-10-16T06:16:12;16.60;99.90
58566;DHT22;47788;46.172;-1.158;2022-10-16T06:18:38;16.60;99.90
58566;DHT22;47788;46.172;-1.158;2022-10-16T06:21:24;16.60;99.90
58566;DHT22;47788;46.172;-1.158;2022-10-16T06:23:50;16.60;99.90
58566;DHT22;47788;46.172;-1.158;2022-10-16T06:26:18;16.60;99.90
58566;DHT22;47788;46.172;-1.158;2022-10-16T06:28:45;16.60;99.90
58566;DHT22;47788;46.172;-1.158;2022-10-16T06:31:12;16.60;99.90
58566;DHT22;47788;46.172;-1.158;2022-10-16T06:33:38;16.70;99.90
58566;DHT22;47788;46.172;-1.158;2022-10-16T06:36:11;16.70;99.90
58566;DHT22;47788;46.172;-1.158;2022-10-16T06:38:38;16.70;99.90
58566;DHT22;47788;46.172;-1.158;2022-10-16T06:41:04;16.70;99.90
58566;DHT22;47788;46.172;-1.158;2022-10-16T06:43:31;16.80;99.90
58566;DHT22;47788;46.172;-1.158;2022-10-16T06:46:04;16.80;99.90
58566;DHT22;47788;46.172;-1.158;2022-10-16T06:48:30;16.80;99.90
58566;DHT22;47788;46.172;-1.158;2022-10-16T06:51:01;16.80;99.90
58566;DHT22;47788;46.172;-1.158;2022-10-16T06:53:30;16.90;99.90
58566;DHT22;47788;46.172;-1.158;2022-10-16T06:55:56;16.90;99.90
58566;DHT22;47788;46.172;-1.158;2022-10-16T06:58:22;16.90;99.90
58566;DHT22;47788;46.172;-1.158;2022-10-16T07:00:48;16.80;99.90
58566;DHT22;47788;46.172;-1.158;2022-10-16T07:03:14;16.90;99.90
58566;DHT22;47788;46.172;-1.158;2022-10-16T07:05:41;16.90;99.90
58566;DHT22;47788;46.172;-1.158;2022-10-16T07:08:07;16.90;99.90
58566;DHT22;47788;46.172;-1.158;2022-10-16T07:10:33;16.90;99.90
58566;DHT22;47788;46.172;-1.158;2022-10-16T07:12:59;16.90;99.90
58566;DHT22;47788;46.172;-1.158;2022-10-16T07:15:26;16.90;99.90
58566;DHT22;47788;46.172;-1.158;2022-10-16T07:17:52;16.90;99.90
58566;DHT22;47788;46.172;-1.158;2022-10-16T07:20:17;17.00;99.90
58566;DHT22;47788;46.172;-1.158;2022-10-16T07:22:43;17.00;99.90
58566;DHT22;47788;46.172;-1.158;2022-10-16T07:25:09;17.10;99.90
58566;DHT22;47788;46.172;-1.158;2022-10-16T07:27:35;17.10;99.90
58566;DHT22;47788;46.172;-1.158;2022-10-16T07:30:00;17.20;99.90
58566;DHT22;47788;46.172;-1.158;2022-10-16T07:32:26;17.20;99.90
58566;DHT22;47788;46.172;-1.158;2022-10-16T07:34:52;17.30;99.90
58566;DHT22;47788;46.172;-1.158;2022-10-16T07:37:18;17.30;99.90
58566;DHT22;47788;46.172;-1.158;2022-10-16T07:39:44;17.40;99.90
58566;DHT22;47788;46.172;-1.158;2022-10-16T07:42:09;17.40;99.90
58566;DHT22;47788;46.172;-1.158;2022-10-16T07:44:35;17.40;99.90
58566;DHT22;47788;46.172;-1.158;2022-10-16T07:47:00;17.40;99.90
58566;DHT22;47788;46.172;-1.158;2022-10-16T07:49:26;17.50;99.90
58566;DHT22;47788;46.172;-1.158;2022-10-16T07:51:52;17.50;99.90
58566;DHT22;47788;46.172;-1.158;2022-10-16T07:54:17;17.60;99.90
58566;DHT22;47788;46.172;-1.158;2022-10-16T07:56:43;17.70;99.90
58566;DHT22;47788;46.172;-1.158;2022-10-16T07:59:08;17.80;99.90
58566;DHT22;47788;46.172;-1.158;2022-10-16T08:01:34;17.80;99.90
58566;DHT22;47788;46.172;-1.158;2022-10-16T08:04:00;17.80;99.90
58566;DHT22;47788;46.172;-1.158;2022-10-16T08:06:26;17.90;99.90
58566;DHT22;47788;46.172;-1.158;2022-10-16T08:08:51;17.90;99.90
58566;DHT22;47788;46.172;-1.158;2022-10-16T08:11:17;18.00;99.90
58566;DHT22;47788;46.172;-1.158;2022-10-16T08:13:43;17.90;99.90
58566;DHT22;47788;46.172;-1.158;2022-10-16T08:16:09;17.90;99.90
58566;DHT22;47788;46.172;-1.158;2022-10-16T08:18:39;18.00;99.90
58566;DHT22;47788;46.172;-1.158;2022-10-16T08:21:06;18.00;99.90
58566;DHT22;47788;46.172;-1.158;2022-10-16T08:23:32;18.10;99.90
58566;DHT22;47788;46.172;-1.158;2022-10-16T08:26:03;18.20;99.90
58566;DHT22;47788;46.172;-1.158;2022-10-16T08:28:29;18.10;99.90
58566;DHT22;47788;46.172;-1.158;2022-10-16T08:30:55;18.20;99.90
58566;DHT22;47788;46.172;-1.158;2022-10-16T08:33:22;18.20;99.90
58566;DHT22;47788;46.172;-1.158;2022-10-16T08:35:52;18.30;99.90
58566;DHT22;47788;46.172;-1.158;2022-10-16T08:38:19;18.30;99.90
58566;DHT22;47788;46.172;-1.158;2022-10-16T08:40:44;18.30;99.90
58566;DHT22;47788;46.172;-1.158;2022-10-16T08:46:15;18.30;99.90
58566;DHT22;47788;46.172;-1.158;2022-10-16T08:48:51;18.30;99.90
58566;DHT22;47788;46.172;-1.158;2022-10-16T08:51:37;18.30;99.90
58566;DHT22;47788;46.172;-1.158;2022-10-16T08:54:05;18.40;99.90
58566;DHT22;47788;46.172;-1.158;2022-10-16T08:56:31;18.50;99.90
58566;DHT22;47788;46.172;-1.158;2022-10-16T08:58:59;18.60;99.90
58566;DHT22;47788;46.172;-1.158;2022-10-16T09:01:54;18.70;99.90
58566;DHT22;47788;46.172;-1.158;2022-10-16T09:07:46;18.80;99.90
58566;DHT22;47788;46.172;-1.158;2022-10-16T09:10:37;18.90;99.90
58566;DHT22;47788;46.172;-1.158;2022-10-16T09:13:21;18.90;99.90
58566;DHT22;47788;46.172;-1.158;2022-10-16T09:21:19;19.20;99.90
58566;DHT22;47788;46.172;-1.158;2022-10-16T09:23:47;19.20;99.90
58566;DHT22;47788;46.172;-1.158;2022-10-16T09:26:14;19.30;99.90
58566;DHT22;47788;46.172;-1.158;2022-10-16T09:28:41;19.40;99.90
58566;DHT22;47788;46.172;-1.158;2022-10-16T09:31:21;19.50;99.90
58566;DHT22;47788;46.172;-1.158;2022-10-16T09:33:52;19.50;99.90
58566;DHT22;47788;46.172;-1.158;2022-10-16T09:36:19;19.60;99.90
58566;DHT22;47788;46.172;-1.158;2022-10-16T09:38:45;19.60;99.90
58566;DHT22;47788;46.172;-1.158;2022-10-16T09:41:20;19.60;99.90
58566;DHT22;47788;46.172;-1.158;2022-10-16T09:43:49;19.70;99.90
58566;DHT22;47788;46.172;-1.158;2022-10-16T09:48:57;19.70;99.90
58566;DHT22;47788;46.172;-1.158;2022-10-16T09:51:26;19.80;99.90
58566;DHT22;47788;46.172;-1.158;2022-10-16T09:53:58;19.90;99.90
58566;DHT22;47788;46.172;-1.158;2022-10-16T09:56:32;19.90;99.90
58566;DHT22;47788;46.172;-1.158;2022-10-16T09:58:59;20.00;99.90
58566;DHT22;47788;46.172;-1.158;2022-10-16T10:01:31;20.00;99.90
58566;DHT22;47788;46.172;-1.158;2022-10-16T10:04:01;20.00;99.90
58566;DHT22;47788;46.172;-1.158;2022-10-16T10:06:34;20.10;99.90
58566;DHT22;47788;46.172;-1.158;2022-10-16T10:09:04;20.10;99.90
58566;DHT22;47788;46.172;-1.158;2022-10-16T10:14:39;20.00;99.90
58566;DHT22;47788;46.172;-1.158;2022-10-16T10:20:21;20.10;99.90
58566;DHT22;47788;46.172;-1.158;2022-10-16T10:22:48;20.10;99.90
58566;DHT22;47788;46.172;-1.158;2022-10-16T10:27:51;20.30;99.90
58566;DHT22;47788;46.172;-1.158;2022-10-16T10:33:30;20.40;99.90
58566;DHT22;47788;46.172;-1.158;2022-10-16T10:41:44;20.50;99.90
58566;DHT22;47788;46.172;-1.158;2022-10-16T10:47:44;20.70;99.90
58566;DHT22;47788;46.172;-1.158;2022-10-16T10:55:57;21.10;99.90
58566;DHT22;47788;46.172;-1.158;2022-10-16T10:58:50;21.10;99.90
58566;DHT22;47788;46.172;-1.158;2022-10-16T11:01:36;21.20;99.90
58566;DHT22;47788;46.172;-1.158;2022-10-16T11:07:04;21.30;99.90
58566;DHT22;47788;46.172;-1.158;2022-10-16T11:09:38;21.30;99.90
58566;DHT22;47788;46.172;-1.158;2022-10-16T11:12:12;21.50;99.90
58566;DHT22;47788;46.172;-1.158;2022-10-16T11:17:35;21.70;99.90
58566;DHT22;47788;46.172;-1.158;2022-10-16T11:20:19;21.70;99.90
58566;DHT22;47788;46.172;-1.158;2022-10-16T11:22:58;21.80;99.90
58566;DHT22;47788;46.172;-1.158;2022-10-16T11:25:32;21.90;99.90
58566;DHT22;47788;46.172;-1.158;2022-10-16T11:33:34;22.00;99.90
58566;DHT22;47788;46.172;-1.158;2022-10-16T11:36:19;22.10;99.90
58566;DHT22;47788;46.172;-1.158;2022-10-16T11:42:13;22.20;99.90
58566;DHT22;47788;46.172;-1.158;2022-10-16T11:45:46;22.20;99.90
58566;DHT22;47788;46.172;-1.158;2022-10-16T11:47:45;22.20;99.90
58566;DHT22;47788;46.172;-1.158;2022-10-16T11:55:26;22.20;99.90
58566;DHT22;47788;46.172;-1.158;2022-10-16T11:58:12;22.30;99.90
58566;DHT22;47788;46.172;-1.158;2022-10-16T12:01:03;22.30;99.90
58566;DHT22;47788;46.172;-1.158;2022-10-16T12:06:28;22.50;99.90
58566;DHT22;47788;46.172;-1.158;2022-10-16T12:08:59;22.60;99.90
58566;DHT22;47788;46.172;-1.158;2022-10-16T12:16:30;23.00;99.90
58566;DHT22;47788;46.172;-1.158;2022-10-16T12:19:14;23.20;99.90
58566;DHT22;47788;46.172;-1.158;2022-10-16T12:21:41;23.20;99.90
58566;DHT22;47788;46.172;-1.158;2022-10-16T12:24:30;23.10;99.90
58566;DHT22;47788;46.172;-1.158;2022-10-16T12:26:56;23.00;99.90
58566;DHT22;47788;46.172;-1.158;2022-10-16T12:29:31;23.20;99.90
58566;DHT22;47788;46.172;-1.158;2022-10-16T12:31:57;23.40;99.90
58566;DHT22;47788;46.172;-1.158;2022-10-16T12:34:36;23.50;99.90
58566;DHT22;47788;46.172;-1.158;2022-10-16T12:37:21;23.80;99.90
58566;DHT22;47788;46.172;-1.158;2022-10-16T12:39:49;24.10;99.90
58566;DHT22;47788;46.172;-1.158;2022-10-16T12:44:52;23.80;99.90
58566;DHT22;47788;46.172;-1.158;2022-10-16T12:47:48;23.90;99.90
58566;DHT22;47788;46.172;-1.158;2022-10-16T12:50:27;24.20;99.90
58566;DHT22;47788;46.172;-1.158;2022-10-16T12:52:53;24.40;99.90
58566;DHT22;47788;46.172;-1.158;2022-10-16T12:55:21;24.60;99.90
58566;DHT22;47788;46.172;-1.158;2022-10-16T13:00:48;24.50;99.90
58566;DHT22;47788;46.172;-1.158;2022-10-16T13:03:44;24.50;99.90
58566;DHT22;47788;46.172;-1.158;2022-10-16T13:06:25;24.30;99.90
58566;DHT22;47788;46.172;-1.158;2022-10-16T13:12:01;24.20;99.90
58566;DHT22;47788;46.172;-1.158;2022-10-16T13:19:58;23.90;99.90
58566;DHT22;47788;46.172;-1.158;2022-10-16T13:22:40;24.10;99.90
58566;DHT22;47788;46.172;-1.158;2022-10-16T13:28:05;23.80;99.90
58566;DHT22;47788;46.172;-1.158;2022-10-16T13:30:33;23.90;99.90
58566;DHT22;47788;46.172;-1.158;2022-10-16T13:33:11;24.10;99.90
58566;DHT22;47788;46.172;-1.158;2022-10-16T13:35:47;24.20;99.90
58566;DHT22;47788;46.172;-1.158;2022-10-16T13:38:16;24.10;99.90
58566;DHT22;47788;46.172;-1.158;2022-10-16T13:41:15;24.00;99.90
58566;DHT22;47788;46.172;-1.158;2022-10-16T13:43:46;23.80;99.90
58566;DHT22;47788;46.172;-1.158;2022-10-16T13:46:19;23.50;99.90
58566;DHT22;47788;46.172;-1.158;2022-10-16T13:51:29;23.90;99.90
58566;DHT22;47788;46.172;-1.158;2022-10-16T13:53:56;24.30;99.90
58566;DHT22;47788;46.172;-1.158;2022-10-16T13:56:25;24.50;99.90
58566;DHT22;47788;46.172;-1.158;2022-10-16T13:59:03;24.50;99.90
58566;DHT22;47788;46.172;-1.158;2022-10-16T14:01:35;24.20;99.90
58566;DHT22;47788;46.172;-1.158;2022-10-16T14:04:08;24.20;99.90
58566;DHT22;47788;46.172;-1.158;2022-10-16T14:06:36;24.10;99.90
58566;DHT22;47788;46.172;-1.158;2022-10-16T14:09:09;23.90;99.90
58566;DHT22;47788;46.172;-1.158;2022-10-16T14:11:58;23.90;99.90
58566;DHT22;47788;46.172;-1.158;2022-10-16T14:14:25;23.70;99.90
58566;DHT22;47788;46.172;-1.158;2022-10-16T14:16:52;23.70;99.90
58566;DHT22;47788;46.172;-1.158;2022-10-16T14:19:22;23.70;99.90
58566;DHT22;47788;46.172;-1.158;2022-10-16T14:21:50;23.80;99.90
58566;DHT22;47788;46.172;-1.158;2022-10-16T14:24:33;23.80;99.90
58566;DHT22;47788;46.172;-1.158;2022-10-16T14:27:00;23.60;99.90
58566;DHT22;47788;46.172;-1.158;2022-10-16T14:29:27;23.60;99.90
58566;DHT22;47788;46.172;-1.158;2022-10-16T14:32:04;23.70;99.90
58566;DHT22;47788;46.172;-1.158;2022-10-16T14:34:35;23.80;99.90
58566;DHT22;47788;46.172;-1.158;2022-10-16T14:37:10;23.90;99.90
58566;DHT22;47788;46.172;-1.158;2022-10-16T14:39:40;24.00;99.90
58566;DHT22;47788;46.172;-1.158;2022-10-16T14:42:14;23.80;99.90
58566;DHT22;47788;46.172;-1.158;2022-10-16T14:44:40;23.80;99.90
58566;DHT22;47788;46.172;-1.158;2022-10-16T14:47:13;23.80;99.90
58566;DHT22;47788;46.172;-1.158;2022-10-16T14:49:42;23.70;99.90
58566;DHT22;47788;46.172;-1.158;2022-10-16T14:52:11;23.80;99.90
58566;DHT22;47788;46.172;-1.158;2022-10-16T14:54:37;23.70;99.90
58566;DHT22;47788;46.172;-1.158;2022-10-16T14:57:03;23.50;99.90
58566;DHT22;47788;46.172;-1.158;2022-10-16T14:59:39;23.30;99.90
58566;DHT22;47788;46.172;-1.158;2022-10-16T15:02:32;23.30;99.90
58566;DHT22;47788;46.172;-1.158;2022-10-16T15:05:12;23.30;99.90
58566;DHT22;47788;46.172;-1.158;2022-10-16T15:07:38;23.20;99.90
58566;DHT22;47788;46.172;-1.158;2022-10-16T15:10:04;23.10;99.90
58566;DHT22;47788;46.172;-1.158;2022-10-16T15:12:30;23.10;99.90
58566;DHT22;47788;46.172;-1.158;2022-10-16T15:14:55;23.00;99.90
58566;DHT22;47788;46.172;-1.158;2022-10-16T15:17:21;23.00;99.90
58566;DHT22;47788;46.172;-1.158;2022-10-16T15:19:47;22.90;99.90
58566;DHT22;47788;46.172;-1.158;2022-10-16T15:22:12;23.00;99.90
58566;DHT22;47788;46.172;-1.158;2022-10-16T15:24:38;22.80;99.90
58566;DHT22;47788;46.172;-1.158;2022-10-16T15:27:03;22.70;99.90
58566;DHT22;47788;46.172;-1.158;2022-10-16T15:29:29;22.90;99.90
58566;DHT22;47788;46.172;-1.158;2022-10-16T15:31:55;22.90;99.90
58566;DHT22;47788;46.172;-1.158;2022-10-16T15:34:20;23.40;99.90
58566;DHT22;47788;46.172;-1.158;2022-10-16T15:36:46;23.80;99.90
58566;DHT22;47788;46.172;-1.158;2022-10-16T15:39:15;24.00;99.90
58566;DHT22;47788;46.172;-1.158;2022-10-16T15:41:41;25.20;99.90
58566;DHT22;47788;46.172;-1.158;2022-10-16T15:44:07;25.70;99.90
58566;DHT22;47788;46.172;-1.158;2022-10-16T15:46:33;25.00;99.90
58566;DHT22;47788;46.172;-1.158;2022-10-16T15:49:00;24.50;99.90
58566;DHT22;47788;46.172;-1.158;2022-10-16T15:51:26;23.90;99.90
58566;DHT22;47788;46.172;-1.158;2022-10-16T15:53:59;23.80;99.90
58566;DHT22;47788;46.172;-1.158;2022-10-16T15:56:27;24.40;99.90
58566;DHT22;47788;46.172;-1.158;2022-10-16T15:58:54;24.40;99.90
58566;DHT22;47788;46.172;-1.158;2022-10-16T16:01:20;24.20;99.90
58566;DHT22;47788;46.172;-1.158;2022-10-16T16:03:46;24.30;99.90
58566;DHT22;47788;46.172;-1.158;2022-10-16T16:06:13;24.10;99.90
58566;DHT22;47788;46.172;-1.158;2022-10-16T16:08:39;24.10;99.90
58566;DHT22;47788;46.172;-1.158;2022-10-16T16:11:10;24.10;99.90
58566;DHT22;47788;46.172;-1.158;2022-10-16T16:13:36;23.90;99.90
58566;DHT22;47788;46.172;-1.158;2022-10-16T16:16:14;23.60;99.90
58566;DHT22;47788;46.172;-1.158;2022-10-16T16:18:41;23.60;99.90
58566;DHT22;47788;46.172;-1.158;2022-10-16T16:21:07;23.40;99.90
58566;DHT22;47788;46.172;-1.158;2022-10-16T16:23:34;23.10;99.90
58566;DHT22;47788;46.172;-1.158;2022-10-16T16:28:35;22.70;99.90
58566;DHT22;47788;46.172;-1.158;2022-10-16T16:31:01;22.50;99.90
58566;DHT22;47788;46.172;-1.158;2022-10-16T16:33:27;22.30;99.90
58566;DHT22;47788;46.172;-1.158;2022-10-16T16:35:59;22.20;99.90
58566;DHT22;47788;46.172;-1.158;2022-10-16T16:38:25;22.10;99.90
58566;DHT22;47788;46.172;-1.158;2022-10-16T16:40:51;22.00;99.90
58566;DHT22;47788;46.172;-1.158;2022-10-16T16:43:17;22.00;99.90
58566;DHT22;47788;46.172;-1.158;2022-10-16T16:45:43;21.90;99.90
58566;DHT22;47788;46.172;-1.158;2022-10-16T16:48:09;21.80;99.90
58566;DHT22;47788;46.172;-1.158;2022-10-16T16:50:38;21.70;99.90
58566;DHT22;47788;46.172;-1.158;2022-10-16T16:53:04;21.50;99.90
58566;DHT22;47788;46.172;-1.158;2022-10-16T16:55:29;21.40;99.90
58566;DHT22;47788;46.172;-1.158;2022-10-16T16:57:55;21.30;99.90
58566;DHT22;47788;46.172;-1.158;2022-10-16T17:00:22;21.20;99.90
58566;DHT22;47788;46.172;-1.158;2022-10-16T17:02:49;21.00;99.90
58566;DHT22;47788;46.172;-1.158;2022-10-16T17:05:14;20.90;99.90
58566;DHT22;47788;46.172;-1.158;2022-10-16T17:07:40;20.80;99.90
58566;DHT22;47788;46.172;-1.158;2022-10-16T17:10:07;20.70;99.90
58566;DHT22;47788;46.172;-1.158;2022-10-16T17:12:32;20.60;99.90